Time;durP1;ratioP1;P1;durP2;ratioP2;P2;SDS_P1;SDS_P2;PMS_P1;PMS_P2;Temp;Humidity;BMP_temperature;BMP_pressure;BME280_temperature;BME280_humidity;BME280_pressure;Samples;Min_cycle;Max_cycle;Signal;HPM_P1;HPM_P2
2023/06/09 14:09:39;;;;;;;22.95;19.05;;;;;24.90;100209.00;;;;2037812;23;20665;-54
2023/06/09 14:10:39;;;;;;;12.53;11.43;;;;;25.00;100205.00;;;;2066667;23;20274;-48
2023/06/09 14:11:39;;;;;;;11.53;9.87;;;;;25.00;100204.00;;;;2044443;28;20471;-49
2023/06/09 14:12:43;;;;;;;25.33;21.60;;;;;25.00;100202.00;;;;2033734;28;20250;-50
2023/06/09 14:13:43;;;;;;;13.52;12.23;;;;;25.00;100201.00;;;;2053651;28;20224;-48
2023/06/09 14:14:43;;;;;;;13.87;12.37;;;;;25.10;100208.00;;;;2066498;28;20705;-49
2023/06/09 14:15:44;;;;;;;18.00;16.07;;;;;25.10;100221.00;;;;2054331;28;20784;-49
2023/06/09 14:16:45;;;;;;;19.70;16.60;;;;;25.10;100199.00;;;;2066193;28;20946;-47
2023/06/09 14:17:49;;;;;;;16.50;14.67;;;;;25.10;100209.00;;;;2049572;28;20334;-49
2023/06/09 14:18:49;;;;;;;14.27;12.87;;;;;25.10;100205.00;;;;2048882;28;20466;-49
2023/06/09 14:19:50;;;;;;;13.73;12.33;;;;;25.10;100201.00;;;;2059227;28;20490;-47
2023/06/09 14:20:50;;;;;;;16.37;13.20;;;;;25.10;100206.00;;;;2047452;28;20229;-49
2023/06/09 14:21:51;;;;;;;15.63;12.57;;;;;25.10;100205.00;;;;2058217;28;20690;-48
2023/06/09 14:22:51;;;;;;;13.27;11.87;;;;;25.10;100206.00;;;;2052212;28;20324;-47
2023/06/09 14:23:52;;;;;;;12.77;11.50;;;;;25.10;100207.00;;;;2021010;28;20613;-47
2023/06/09 14:24:52;;;;;;;12.07;10.97;;;;;25.20;100205.00;;;;2049195;28;20253;-47
2023/06/09 14:25:52;;;;;;;13.43;11.90;;;;;25.20;100199.00;;;;2065998;28;20248;-48
2023/06/09 14:26:53;;;;;;;12.27;11.17;;;;;25.20;100200.00;;;;2060914;28;20215;-48
2023/06/09 14:27:53;;;;;;;15.10;13.37;;;;;25.20;100204.00;;;;2049652;28;20230;-49
2023/06/09 14:28:55;;;;;;;11.80;10.43;;;;;25.20;100197.00;;;;2048397;28;20214;-47
2023/06/09 14:29:55;;;;;;;17.52;14.60;;;;;25.10;100203.00;;;;2048124;28;20207;-47
2023/06/09 14:30:55;;;;;;;27.27;23.27;;;;;25.20;100210.00;;;;2046647;28;20313;-48
2023/06/09 14:31:56;;;;;;;24.47;19.73;;;;;25.20;100191.00;;;;2048907;28;20215;-47
2023/06/09 14:32:56;;;;;;;35.10;31.43;;;;;25.10;100196.00;;;;2059360;28;20698;-48
2023/06/09 14:33:56;;;;;;;30.27;26.90;;;;;25.00;100202.00;;;;2050761;28;20760;-47
2023/06/09 14:34:57;;;;;;;35.77;31.40;;;;;25.00;100198.00;;;;2056826;28;20225;-48
2023/06/09 14:35:57;;;;;;;30.33;27.03;;;;;25.00;100199.00;;;;2058500;28;20223;-48
2023/06/09 14:36:57;;;;;;;29.67;26.50;;;;;25.00;100189.00;;;;2059281;28;20251;-49
2023/06/09 14:38:01;;;;;;;30.53;27.33;;;;;25.00;100195.00;;;;2051559;28;20222;-48
2023/06/09 14:39:02;;;;;;;31.83;28.52;;;;;25.00;100200.00;;;;2053248;28;20222;-47
2023/06/09 14:40:03;;;;;;;32.70;29.20;;;;;25.00;100188.00;;;;2057590;28;20710;-48
2023/06/09 14:41:03;;;;;;;35.30;31.53;;;;;25.00;100195.00;;;;2057441;28;20245;-48
2023/06/09 14:42:04;;;;;;;31.83;28.63;;;;;24.90;100215.00;;;;2060440;28;20215;-49
2023/06/09 14:43:06;;;;;;;31.03;27.70;;;;;25.00;100190.00;;;;2055334;28;20241;-47
2023/06/09 14:44:07;;;;;;;31.03;27.83;;;;;25.00;100197.00;;;;2050695;28;20469;-50
2023/06/09 14:45:07;;;;;;;33.50;29.40;;;;;25.00;100196.00;;;;2065946;28;20469;-50
2023/06/09 14:46:08;;;;;;;30.80;27.47;;;;;25.00;100193.00;;;;2052635;28;20281;-51
2023/06/09 14:47:08;;;;;;;31.80;28.33;;;;;24.90;100196.00;;;;2057780;28;20211;-51
2023/06/09 14:48:08;;;;;;;31.57;28.10;;;;;24.90;100196.00;;;;2055990;28;20226;-51
2023/06/09 14:49:09;;;;;;;31.20;28.03;;;;;24.90;100197.00;;;;2042834;28;20252;-50
2023/06/09 14:50:09;;;;;;;32.30;28.90;;;;;24.90;100192.00;;;;2060572;28;20221;-51
2023/06/09 14:51:09;;;;;;;33.60;30.10;;;;;24.90;100194.00;;;;2066520;28;20321;-51
2023/06/09 14:52:10;;;;;;;35.53;31.60;;;;;24.90;100200.00;;;;2059338;28;20218;-51
2023/06/09 14:53:10;;;;;;;34.00;30.33;;;;;24.90;100200.00;;;;2055994;28;20245;-49
2023/06/09 14:54:10;;;;;;;32.67;28.93;;;;;24.90;100193.00;;;;2046515;28;20218;-50
2023/06/09 14:55:11;;;;;;;33.60;30.10;;;;;24.90;100200.00;;;;2057168;28;20233;-50
2023/06/09 14:56:12;;;;;;;35.27;31.47;;;;;24.90;100201.00;;;;2060320;28;20234;-51
2023/06/09 14:57:13;;;;;;;36.73;32.83;;;;;24.90;100209.00;;;;2057991;28;20242;-50
2023/06/09 14:58:14;;;;;;;36.37;32.47;;;;;25.00;100194.00;;;;2056559;28;20814;-50
2023/06/09 14:59:15;;;;;;;35.75;31.95;;;;;24.90;100201.00;;;;2039571;28;20329;-51
2023/06/09 15:00:17;;;;;;;34.53;31.00;;;;;24.90;100193.00;;;;2057972;28;20210;-51
2023/06/09 15:01:18;;;;;;;33.80;30.10;;;;;24.80;100200.00;;;;2054574;28;20226;-51
2023/06/09 15:02:18;;;;;;;36.57;32.70;;;;;24.80;100194.00;;;;2059714;28;20978;-50
2023/06/09 15:03:19;;;;;;;33.90;30.40;;;;;24.90;100184.00;;;;2040480;28;20233;-51
2023/06/09 15:04:19;;;;;;;35.10;31.50;;;;;24.80;100193.00;;;;2054103;28;20218;-49
2023/06/09 15:05:20;;;;;;;36.37;32.23;;;;;24.90;100191.00;;;;2061254;28;21260;-51
2023/06/09 15:06:20;;;;;;;36.37;32.50;;;;;24.90;100197.00;;;;2057394;28;20229;-50
2023/06/09 15:07:20;;;;;;;38.60;32.20;;;;;24.90;100194.00;;;;2055416;28;20222;-50
2023/06/09 15:08:21;;;;;;;38.03;31.20;;;;;24.90;100189.00;;;;2044964;28;20238;-50
2023/06/09 15:09:21;;;;;;;37.10;31.20;;;;;24.90;100194.00;;;;2052643;28;20202;-51
2023/06/09 15:10:25;;;;;;;34.60;31.00;;;;;24.80;100190.00;;;;2066718;28;20221;-51
2023/06/09 15:11:26;;;;;;;35.67;31.85;;;;;24.80;100193.00;;;;2058926;28;20288;-50
2023/06/09 15:12:26;;;;;;;39.43;33.57;;;;;24.80;100189.00;;;;2059272;28;20733;-50
2023/06/09 15:13:27;;;;;;;39.10;33.00;;;;;24.80;100193.00;;;;2058132;28;20237;-51
2023/06/09 15:14:27;;;;;;;37.90;32.63;;;;;24.80;100185.00;;;;2045908;28;20273;-51
2023/06/09 15:15:27;;;;;;;36.23;32.10;;;;;24.80;100187.00;;;;2062147;28;20202;-52
2023/06/09 15:16:28;;;;;;;37.87;33.83;;;;;24.90;100185.00;;;;2060819;28;20219;-51
2023/06/09 15:17:28;;;;;;;37.10;32.80;;;;;25.00;100188.00;;;;2059116;28;20721;-52
2023/06/09 15:18:28;;;;;;;38.50;34.30;;;;;24.90;100205.00;;;;2057023;28;20651;-51
2023/06/09 15:19:29;;;;;;;38.63;34.63;;;;;24.90;100177.00;;;;2044452;28;20684;-51
2023/06/09 15:20:29;;;;;;;38.60;34.50;;;;;24.90;100181.00;;;;2047070;28;20235;-51
2023/06/09 15:21:30;;;;;;;42.03;36.10;;;;;24.90;100179.00;;;;2057595;28;20281;-50
2023/06/09 15:22:31;;;;;;;42.83;38.17;;;;;24.90;100180.00;;;;2057839;28;20211;-51
2023/06/09 15:23:31;;;;;;;44.15;39.53;;;;;24.90;100177.00;;;;2059189;28;20273;-51
2023/06/09 15:24:31;;;;;;;44.43;39.50;;;;;24.90;100181.00;;;;2051863;28;20233;-50
2023/06/09 15:25:33;;;;;;;45.27;40.20;;;;;24.90;100169.00;;;;2062122;28;20552;-51
2023/06/09 15:26:36;;;;;;;46.13;39.50;;;;;24.90;100176.00;;;;2059525;28;20211;-50
2023/06/09 15:27:37;;;;;;;52.07;46.53;;;;;24.90;100188.00;;;;2050946;28;20538;-51
2023/06/09 15:28:37;;;;;;;46.97;41.87;;;;;24.90;100177.00;;;;2048000;28;21049;-49
2023/06/09 15:29:37;;;;;;;58.30;50.50;;;;;24.90;100178.00;;;;2050653;28;20229;-49
2023/06/09 15:30:39;;;;;;;56.13;50.13;;;;;24.90;100173.00;;;;2057380;28;20222;-50
2023/06/09 15:31:39;;;;;;;57.28;50.92;;;;;24.90;100173.00;;;;2057464;28;20222;-50
2023/06/09 15:32:40;;;;;;;59.50;47.47;;;;;24.90;100176.00;;;;2036614;28;20620;-50
2023/06/09 15:33:40;;;;;;;54.57;48.73;;;;;24.90;100174.00;;;;2040804;28;20625;-51
2023/06/09 15:34:40;;;;;;;62.77;53.53;;;;;24.90;100177.00;;;;2042244;28;20914;-51
2023/06/09 15:35:49;;;;;;;58.80;51.07;;;;;24.90;100178.00;;;;2052453;28;20588;-52
2023/06/09 15:36:49;;;;;;;56.92;51.00;;;;;24.90;100190.00;;;;2059124;28;20711;-50
2023/06/09 15:37:50;;;;;;;61.80;54.30;;;;;24.90;100186.00;;;;2058958;28;20227;-50
2023/06/09 15:38:50;;;;;;;63.23;55.73;;;;;24.90;100183.00;;;;2026015;28;20265;-52
2023/06/09 15:39:51;;;;;;;65.80;57.17;;;;;25.00;100185.00;;;;2055718;28;20218;-51
2023/06/09 15:40:52;;;;;;;71.53;59.10;;;;;25.00;100178.00;;;;2063631;28;20229;-51
2023/06/09 15:41:52;;;;;;;65.00;57.23;;;;;25.00;100177.00;;;;2061298;28;20231;-50
2023/06/09 15:42:53;;;;;;;66.67;56.07;;;;;25.10;100181.00;;;;2049873;28;20502;-51
2023/06/09 15:43:53;;;;;;;69.23;58.13;;;;;25.10;100175.00;;;;2046020;28;20228;-49
2023/06/09 15:44:54;;;;;;;64.23;55.57;;;;;25.10;100179.00;;;;2065593;28;20230;-50
2023/06/09 15:45:55;;;;;;;70.30;61.28;;;;;25.10;100185.00;;;;2057584;28;20250;-50
2023/06/09 15:46:55;;;;;;;68.87;60.10;;;;;25.10;100177.00;;;;2053667;28;20310;-51
2023/06/09 15:47:56;;;;;;;64.37;57.23;;;;;25.00;100198.00;;;;2058860;28;20636;-51
2023/06/09 15:48:57;;;;;;;74.97;60.10;;;;;25.00;100174.00;;;;2041912;28;20748;-50
2023/06/09 15:49:57;;;;;;;70.20;60.90;;;;;25.00;100169.00;;;;2066976;28;20305;-50
2023/06/09 15:50:58;;;;;;;70.43;62.13;;;;;25.00;100172.00;;;;2061821;28;20535;-50
2023/06/09 15:51:59;;;;;;;69.00;61.40;;;;;25.10;100172.00;;;;2060040;28;20250;-50
2023/06/09 15:52:59;;;;;;;75.07;67.17;;;;;25.00;100177.00;;;;2054300;28;20321;-50
2023/06/09 15:53:59;;;;;;;71.67;63.83;;;;;25.00;100171.00;;;;2047527;28;20468;-53
2023/06/09 15:55:00;;;;;;;77.67;69.37;;;;;25.00;100177.00;;;;2055771;28;20238;-50
2023/06/09 15:56:00;;;;;;;85.40;71.83;;;;;25.00;100127.00;;;;2067843;28;20614;-51
2023/06/09 15:57:01;;;;;;;86.97;74.00;;;;;25.00;100173.00;;;;2068510;28;20574;-50
2023/06/09 15:58:04;;;;;;;91.60;77.30;;;;;25.10;100174.00;;;;2059181;28;20240;-50
2023/06/09 15:59:05;;;;;;;88.65;78.05;;;;;25.00;100183.00;;;;2042037;28;20487;-49
2023/06/09 16:00:06;;;;;;;90.87;78.37;;;;;25.10;100163.00;;;;2064873;28;20264;-50
2023/06/09 16:01:06;;;;;;;92.30;82.23;;;;;25.10;100169.00;;;;2045863;28;20226;-51
2023/06/09 16:02:06;;;;;;;97.20;85.83;;;;;25.10;100165.00;;;;2059124;28;20230;-51
2023/06/09 16:03:07;;;;;;;101.27;87.57;;;;;25.10;100165.00;;;;2048162;28;20219;-51
2023/06/09 16:04:07;;;;;;;102.47;88.67;;;;;25.10;100161.00;;;;2047225;28;20262;-50
2023/06/09 16:05:08;;;;;;;106.10;89.80;;;;;25.20;100170.00;;;;2051813;28;20350;-50
2023/06/09 16:06:11;;;;;;;102.20;88.57;;;;;25.10;100163.00;;;;2060251;28;20249;-52
2023/06/09 16:07:11;;;;;;;103.43;89.90;;;;;25.10;100171.00;;;;2056060;28;21069;-50
2023/06/09 16:08:12;;;;;;;93.80;80.00;;;;;25.10;100169.00;;;;2058591;28;20215;-49
2023/06/09 16:09:13;;;;;;;100.97;87.67;;;;;25.10;100167.00;;;;2041578;28;20671;-49
2023/06/09 16:10:13;;;;;;;102.87;88.30;;;;;25.10;100161.00;;;;2050190;28;20865;-51
2023/06/09 16:11:13;;;;;;;100.53;88.27;;;;;25.20;100160.00;;;;2060654;28;20215;-49
2023/06/09 16:12:14;;;;;;;113.40;95.33;;;;;25.20;100163.00;;;;2060396;28;20214;-51
2023/06/09 16:13:15;;;;;;;108.90;94.70;;;;;25.20;100161.00;;;;2037517;28;20215;-51
2023/06/09 16:14:16;;;;;;;123.35;101.25;;;;;25.10;100157.00;;;;2042731;28;20457;-52
2023/06/09 16:15:16;;;;;;;121.83;103.47;;;;;25.10;100158.00;;;;2064090;28;20859;-50
2023/06/09 16:16:16;;;;;;;126.77;106.10;;;;;25.20;100164.00;;;;2049364;28;20219;-50
2023/06/09 16:17:17;;;;;;;113.90;95.80;;;;;25.20;100157.00;;;;2062015;28;20223;-50
2023/06/09 16:18:18;;;;;;;120.53;105.20;;;;;25.20;100157.00;;;;2058983;28;20215;-50
2023/06/09 16:19:19;;;;;;;115.50;96.60;;;;;25.20;100159.00;;;;2050665;28;20250;-50
2023/06/09 16:20:19;;;;;;;112.60;97.30;;;;;25.20;100157.00;;;;2053685;28;20734;-50
2023/06/09 16:21:19;;;;;;;109.77;96.10;;;;;25.20;100157.00;;;;2062124;28;20222;-50
2023/06/09 16:22:20;;;;;;;114.73;96.93;;;;;25.20;100152.00;;;;2057247;28;20234;-50
2023/06/09 16:23:20;;;;;;;109.53;97.53;;;;;25.20;100160.00;;;;2057140;28;20237;-50
2023/06/09 16:24:20;;;;;;;116.53;100.83;;;;;25.20;100156.00;;;;2050573;28;20227;-50
2023/06/09 16:25:21;;;;;;;114.13;97.30;;;;;25.30;100153.00;;;;2057717;28;20222;-50
2023/06/09 16:26:26;;;;;;;117.00;99.57;;;;;25.30;100162.00;;;;2055584;28;20224;-50
2023/06/09 16:27:27;;;;;;;103.70;92.50;;;;;25.20;100149.00;;;;2060854;28;20219;-50
2023/06/09 16:28:27;;;;;;;109.60;95.40;;;;;25.30;100154.00;;;;2058185;28;20462;-50
2023/06/09 16:29:27;;;;;;;111.13;98.67;;;;;25.30;100152.00;;;;2047023;28;20222;-50
2023/06/09 16:30:30;;;;;;;105.00;92.60;;;;;25.30;100161.00;;;;2047050;28;20246;-51
2023/06/09 16:31:31;;;;;;;111.25;96.45;;;;;25.30;100157.00;;;;2066645;28;20229;-51
2023/06/09 16:32:31;;;;;;;110.63;95.47;;;;;25.30;100159.00;;;;2062508;28;20223;-51
2023/06/09 16:33:35;;;;;;;111.27;96.50;;;;;25.30;100153.00;;;;2053435;28;20691;-50
2023/06/09 16:34:35;;;;;;;105.35;93.95;;;;;25.30;100148.00;;;;2049659;28;20219;-50
2023/06/09 16:35:36;;;;;;;106.80;93.30;;;;;25.30;100157.00;;;;2057644;28;20218;-51
2023/06/09 16:36:36;;;;;;;105.97;94.57;;;;;25.30;100145.00;;;;2059148;28;20219;-51
2023/06/09 16:37:37;;;;;;;114.13;96.03;;;;;25.30;100088.00;;;;2060697;28;20715;-51
2023/06/09 16:38:38;;;;;;;109.43;92.13;;;;;25.30;100152.00;;;;2048056;28;20454;-51
2023/06/09 16:39:39;;;;;;;110.60;93.87;;;;;25.30;100151.00;;;;2046616;28;20740;-55
2023/06/09 16:40:39;;;;;;;104.07;90.77;;;;;25.30;100155.00;;;;2051811;28;20480;-50
2023/06/09 16:41:39;;;;;;;113.93;94.63;;;;;25.30;100151.00;;;;2065259;28;20245;-51
2023/06/09 16:42:40;;;;;;;104.27;92.87;;;;;25.30;100158.00;;;;2062516;28;20243;-51
2023/06/09 16:43:40;;;;;;;107.50;92.53;;;;;25.30;100151.00;;;;2060477;28;20594;-51
2023/06/09 16:44:40;;;;;;;104.57;90.60;;;;;25.30;100152.00;;;;2049611;28;20654;-50
2023/06/09 16:45:41;;;;;;;107.37;91.67;;;;;25.40;100151.00;;;;2064370;28;20843;-50
2023/06/09 16:46:41;;;;;;;100.80;89.60;;;;;25.40;100147.00;;;;2043441;28;20582;-51
2023/06/09 16:47:41;;;;;;;97.23;86.57;;;;;25.40;100143.00;;;;2060015;28;20592;-50
2023/06/09 16:48:42;;;;;;;99.67;88.30;;;;;25.40;100147.00;;;;2052403;28;20219;-49
2023/06/09 16:49:42;;;;;;;103.73;89.20;;;;;25.50;100152.00;;;;2055342;28;20321;-50
2023/06/09 16:50:42;;;;;;;81.73;72.37;;;;;25.50;100147.00;;;;2054497;28;20285;-50
2023/06/09 16:51:43;;;;;;;87.83;77.80;;;;;25.50;100153.00;;;;2053175;28;20223;-51
2023/06/09 16:52:43;;;;;;;88.30;78.17;;;;;25.40;100151.00;;;;2053598;28;20222;-51
2023/06/09 16:53:44;;;;;;;90.80;78.80;;;;;25.40;100152.00;;;;2062101;28;20233;-50
2023/06/09 16:54:44;;;;;;;94.83;84.53;;;;;25.40;100147.00;;;;2049066;28;20215;-50
2023/06/09 16:55:44;;;;;;;87.57;78.00;;;;;25.40;100148.00;;;;2073753;28;20217;-50
2023/06/09 16:56:45;;;;;;;100.30;80.83;;;;;25.40;100154.00;;;;2066980;28;20226;-51
2023/06/09 16:57:45;;;;;;;89.70;79.03;;;;;25.40;100154.00;;;;2057964;28;20250;-50
2023/06/09 16:58:45;;;;;;;92.10;81.43;;;;;25.50;100155.00;;;;2059006;28;20392;-50
2023/06/09 16:59:46;;;;;;;91.07;79.40;;;;;25.40;100155.00;;;;2038291;28;20272;-51
2023/06/09 17:00:46;;;;;;;89.27;79.60;;;;;25.40;100114.00;;;;2065755;28;20210;-51
2023/06/09 17:01:46;;;;;;;90.90;80.47;;;;;25.40;100153.00;;;;2063642;28;20294;-50
2023/06/09 17:02:47;;;;;;;90.83;81.00;;;;;25.40;100155.00;;;;2058643;28;20634;-51
2023/06/09 17:03:47;;;;;;;89.93;80.10;;;;;25.40;100155.00;;;;2057883;28;20722;-51
2023/06/09 17:04:47;;;;;;;89.67;78.53;;;;;25.40;100156.00;;;;2056065;28;20617;-51
2023/06/09 17:05:48;;;;;;;92.63;81.77;;;;;25.30;100156.00;;;;2066406;28;20239;-51
2023/06/09 17:06:48;;;;;;;92.70;80.17;;;;;25.30;100155.00;;;;2060062;28;20269;-52
2023/06/09 17:07:48;;;;;;;91.77;81.87;;;;;25.30;100160.00;;;;2062668;28;20225;-51
2023/06/09 17:08:51;;;;;;;100.67;84.80;;;;;25.30;100160.00;;;;2059297;28;21070;-50
2023/06/09 17:09:52;;;;;;;99.50;86.67;;;;;25.30;100160.00;;;;2055869;28;20679;-50
2023/06/09 17:10:52;;;;;;;101.53;89.13;;;;;25.30;100161.00;;;;2065087;28;20565;-50
2023/06/09 17:11:52;;;;;;;99.50;87.37;;;;;25.20;100156.00;;;;2061012;28;20215;-50
2023/06/09 17:12:53;;;;;;;100.77;87.03;;;;;25.20;100156.00;;;;2058576;28;20219;-51
2023/06/09 17:13:53;;;;;;;110.77;95.37;;;;;25.20;100161.00;;;;2037045;28;20207;-50
2023/06/09 17:14:53;;;;;;;106.97;95.13;;;;;25.20;100175.00;;;;2051988;28;20222;-51
2023/06/09 17:15:54;;;;;;;107.23;95.20;;;;;25.20;100166.00;;;;2064685;28;20248;-50
2023/06/09 17:16:55;;;;;;;109.30;94.80;;;;;25.20;100169.00;;;;2055773;28;20211;-50
2023/06/09 17:17:55;;;;;;;112.87;96.57;;;;;25.20;100157.00;;;;2066247;28;20456;-50
2023/06/09 17:18:55;;;;;;;107.43;96.03;;;;;25.20;100159.00;;;;2050111;28;20237;-50
2023/06/09 17:19:57;;;;;;;111.30;98.87;;;;;25.20;100163.00;;;;2046979;28;20217;-50
2023/06/09 17:20:57;;;;;;;114.83;100.53;;;;;25.10;100157.00;;;;2058556;28;20222;-50
2023/06/09 17:21:57;;;;;;;114.07;101.50;;;;;25.10;100167.00;;;;2057959;28;20458;-51
2023/06/09 17:22:58;;;;;;;125.37;111.87;;;;;25.20;100165.00;;;;2060730;28;20250;-50
2023/06/09 17:23:58;;;;;;;116.07;101.93;;;;;25.20;100163.00;;;;2050028;28;20210;-51
2023/06/09 17:24:59;;;;;;;124.23;109.27;;;;;25.20;100166.00;;;;2022833;28;20234;-51
2023/06/09 17:25:59;;;;;;;131.67;112.23;;;;;25.20;100172.00;;;;2059258;28;20253;-51
2023/06/09 17:26:59;;;;;;;135.60;115.47;;;;;25.20;100168.00;;;;2058846;28;20215;-50
2023/06/09 17:28:01;;;;;;;137.33;116.70;;;;;25.20;100176.00;;;;2057449;28;20241;-51
2023/06/09 17:29:02;;;;;;;137.00;121.70;;;;;25.20;100172.00;;;;2057774;28;20270;-52
2023/06/09 17:30:03;;;;;;;139.00;122.20;;;;;25.20;100168.00;;;;2044464;28;21016;-51
2023/06/09 17:31:03;;;;;;;133.40;116.53;;;;;25.10;100181.00;;;;2065742;28;20241;-51
2023/06/09 17:32:04;;;;;;;143.30;121.93;;;;;25.10;100172.00;;;;2053687;28;21034;-51
2023/06/09 17:33:05;;;;;;;145.33;126.10;;;;;25.10;100165.00;;;;2059404;28;20721;-50
2023/06/09 17:34:06;;;;;;;136.67;120.07;;;;;25.20;100176.00;;;;2047873;28;20250;-56
2023/06/09 17:35:06;;;;;;;140.87;125.23;;;;;25.10;100173.00;;;;2046038;28;20211;-51
2023/06/09 17:36:08;;;;;;;140.13;123.57;;;;;25.20;100162.00;;;;2063528;28;20477;-52
2023/06/09 17:37:08;;;;;;;139.70;119.10;;;;;25.10;100171.00;;;;2068118;28;20214;-50
2023/06/09 17:38:08;;;;;;;134.10;119.50;;;;;25.10;100180.00;;;;2059206;28;21396;-51
2023/06/09 17:39:09;;;;;;;122.20;108.93;;;;;25.10;100183.00;;;;2047866;28;21120;-51
2023/06/09 17:40:10;;;;;;;126.63;112.47;;;;;25.00;100180.00;;;;2057825;28;20804;-51
2023/06/09 17:41:11;;;;;;;138.37;120.00;;;;;25.00;100176.00;;;;2058464;28;20261;-51
2023/06/09 17:42:11;;;;;;;139.70;122.73;;;;;25.00;100177.00;;;;2046588;28;20470;-51
2023/06/09 17:43:11;;;;;;;142.77;120.80;;;;;25.00;100175.00;;;;2057953;28;20687;-51
2023/06/09 17:44:11;;;;;;;139.80;123.20;;;;;25.00;100187.00;;;;2040502;28;20297;-51
2023/06/09 17:45:12;;;;;;;157.60;140.03;;;;;25.00;100179.00;;;;2059738;28;20229;-51
2023/06/09 17:46:12;;;;;;;152.23;135.37;;;;;25.00;100174.00;;;;2059382;28;20249;-51
2023/06/09 17:47:13;;;;;;;158.67;138.57;;;;;25.00;100179.00;;;;2057253;28;20254;-51
2023/06/09 17:48:13;;;;;;;162.30;143.40;;;;;25.00;100183.00;;;;2062449;28;20202;-51
2023/06/09 17:49:15;;;;;;;148.90;129.07;;;;;25.00;100185.00;;;;2047811;28;20329;-51
2023/06/09 17:50:15;;;;;;;177.93;152.87;;;;;25.00;100182.00;;;;2066490;28;20225;-51
2023/06/09 17:51:16;;;;;;;164.30;144.50;;;;;25.00;100188.00;;;;2066304;28;21060;-51
2023/06/09 17:52:20;;;;;;;170.80;147.27;;;;;25.00;100188.00;;;;2060955;28;20713;-51
2023/06/09 17:53:21;;;;;;;198.07;173.80;;;;;25.00;100186.00;;;;2057488;28;20273;-51
2023/06/09 17:54:21;;;;;;;155.30;134.53;;;;;25.00;100183.00;;;;2047407;28;20458;-51
2023/06/09 17:55:21;;;;;;;166.23;142.60;;;;;25.00;100199.00;;;;2057958;28;20213;-50
2023/06/09 17:56:23;;;;;;;150.03;130.60;;;;;25.10;100196.00;;;;2057230;28;20223;-51
2023/06/09 17:57:23;;;;;;;146.75;125.47;;;;;25.10;100196.00;;;;2057118;28;20222;-51
2023/06/09 17:58:24;;;;;;;95.83;82.77;;;;;25.10;100189.00;;;;2055690;28;20215;-51
2023/06/09 17:59:24;;;;;;;76.17;65.20;;;;;25.10;100194.00;;;;2048258;28;20242;-51
2023/06/09 18:00:26;;;;;;;59.20;52.50;;;;;25.10;100191.00;;;;2050085;28;20237;-51
2023/06/09 18:01:26;;;;;;;88.25;74.13;;;;;25.10;100188.00;;;;2065536;28;20218;-51
2023/06/09 18:02:27;;;;;;;77.20;65.07;;;;;25.10;100195.00;;;;2049603;28;20254;-50
2023/06/09 18:03:27;;;;;;;44.73;39.83;;;;;25.10;100189.00;;;;2058430;28;20575;-50
2023/06/09 18:04:27;;;;;;;48.23;42.93;;;;;25.10;100193.00;;;;2046080;28;20239;-50
2023/06/09 18:05:28;;;;;;;54.33;47.90;;;;;25.10;100196.00;;;;2053176;28;20621;-51
2023/06/09 18:06:28;;;;;;;55.07;49.23;;;;;25.10;100196.00;;;;2057557;28;20338;-52
2023/06/09 18:07:28;;;;;;;45.57;40.37;;;;;25.10;100195.00;;;;2051973;28;20245;-49
2023/06/09 18:08:29;;;;;;;33.13;29.80;;;;;25.10;100195.00;;;;2052809;28;20218;-51
2023/06/09 18:09:32;;;;;;;38.57;34.50;;;;;25.10;100197.00;;;;2043120;28;20235;-51
2023/06/09 18:10:33;;;;;;;38.08;34.25;;;;;25.10;100200.00;;;;2061960;28;20257;-51
2023/06/09 18:11:33;;;;;;;42.83;38.53;;;;;25.10;100204.00;;;;2062249;28;20272;-50
2023/06/09 18:12:34;;;;;;;35.90;32.23;;;;;25.10;100198.00;;;;2059304;28;20215;-51
2023/06/09 18:13:34;;;;;;;28.53;23.43;;;;;25.10;100197.00;;;;2056789;28;20223;-51
2023/06/09 18:14:35;;;;;;;36.20;32.60;;;;;25.10;100196.00;;;;2046598;28;20481;-50
2023/06/09 18:15:35;;;;;;;28.20;25.20;;;;;25.10;100203.00;;;;2053795;28;20348;-51
2023/06/09 18:16:35;;;;;;;28.07;25.17;;;;;25.00;100202.00;;;;2059019;28;20219;-50
2023/06/09 18:17:36;;;;;;;26.27;23.57;;;;;25.10;100201.00;;;;2057812;28;20234;-50
2023/06/09 18:18:37;;;;;;;24.43;21.90;;;;;25.00;100203.00;;;;2057074;28;20246;-50
2023/06/09 18:19:37;;;;;;;21.90;19.70;;;;;25.00;100200.00;;;;2048412;28;20724;-51
2023/06/09 18:20:37;;;;;;;22.63;20.43;;;;;25.10;100201.00;;;;2055180;28;20215;-50
2023/06/09 18:21:38;;;;;;;24.10;21.70;;;;;25.00;100204.00;;;;2059103;28;20603;-51
2023/06/09 18:22:38;;;;;;;17.37;15.57;;;;;24.90;100202.00;;;;2059128;28;20226;-51
2023/06/09 18:23:39;;;;;;;20.30;17.67;;;;;25.10;100221.00;;;;2056344;28;20222;-51
2023/06/09 18:24:39;;;;;;;19.33;17.33;;;;;25.10;100211.00;;;;2047213;28;20229;-51
2023/06/09 18:25:39;;;;;;;21.83;19.50;;;;;25.00;100212.00;;;;2051009;28;20222;-50
2023/06/09 18:26:40;;;;;;;16.33;14.63;;;;;24.90;100209.00;;;;2065682;28;20535;-51
2023/06/09 18:27:41;;;;;;;16.67;14.97;;;;;25.10;100215.00;;;;2049218;28;20357;-50
2023/06/09 18:28:41;;;;;;;16.40;14.70;;;;;25.10;100211.00;;;;2056894;28;21024;-50
2023/06/09 18:29:42;;;;;;;18.37;16.67;;;;;24.90;100211.00;;;;2049740;28;20226;-51
2023/06/09 18:30:48;;;;;;;16.37;14.80;;;;;25.00;100221.00;;;;2051609;28;20237;-51
2023/06/09 18:31:48;;;;;;;18.27;16.57;;;;;25.00;100211.00;;;;2061811;28;20241;-51
2023/06/09 18:32:49;;;;;;;18.43;16.63;;;;;25.00;100213.00;;;;2036116;28;20502;-51
2023/06/09 18:33:51;;;;;;;16.70;15.13;;;;;25.00;100215.00;;;;2048743;28;20325;-51
2023/06/09 18:34:51;;;;;;;17.63;16.03;;;;;25.00;100216.00;;;;2043424;28;20219;-52
2023/06/09 18:35:52;;;;;;;15.60;14.10;;;;;25.00;100220.00;;;;2059520;28;20470;-51
2023/06/09 18:36:52;;;;;;;14.00;12.60;;;;;25.00;100214.00;;;;2055955;28;20591;-50
2023/06/09 18:37:52;;;;;;;16.33;14.83;;;;;25.00;100221.00;;;;2047885;28;20645;-51
2023/06/09 18:38:53;;;;;;;11.73;10.63;;;;;25.10;100218.00;;;;2055916;28;20689;-50
2023/06/09 18:39:53;;;;;;;13.13;12.03;;;;;25.10;100222.00;;;;2047624;28;20575;-50
2023/06/09 18:40:54;;;;;;;12.40;11.30;;;;;25.10;100224.00;;;;2057647;28;20223;-50
2023/06/09 18:41:55;;;;;;;11.00;10.10;;;;;25.00;100226.00;;;;2056958;28;20223;-51
2023/06/09 18:42:55;;;;;;;13.77;12.50;;;;;25.00;100236.00;;;;2059429;28;20223;-50
2023/06/09 18:43:56;;;;;;;13.03;11.73;;;;;25.10;100243.00;;;;2056520;28;21216;-50
2023/06/09 18:44:56;;;;;;;12.77;11.60;;;;;25.10;100229.00;;;;2048418;28;20596;-50
2023/06/09 18:45:57;;;;;;;13.00;11.23;;;;;24.90;100227.00;;;;2059066;28;20506;-50
2023/06/09 18:46:57;;;;;;;11.60;10.10;;;;;25.20;100229.00;;;;2057344;28;20251;-50
2023/06/09 18:47:58;;;;;;;13.07;11.87;;;;;25.10;100232.00;;;;2061701;28;20219;-51
2023/06/09 18:48:58;;;;;;;13.90;12.70;;;;;25.00;100242.00;;;;2057434;28;20666;-50
2023/06/09 18:49:59;;;;;;;13.33;12.13;;;;;25.00;100234.00;;;;2049054;28;20468;-50
2023/06/09 18:50:59;;;;;;;12.73;11.53;;;;;25.00;100232.00;;;;2053506;28;20298;-50
2023/06/09 18:52:01;;;;;;;13.77;12.30;;;;;25.00;100236.00;;;;2050846;28;20233;-50
2023/06/09 18:53:01;;;;;;;11.98;10.95;;;;;24.90;100236.00;;;;2059494;28;20249;-50
2023/06/09 18:54:02;;;;;;;14.03;12.87;;;;;24.90;100239.00;;;;2041292;28;20272;-50
2023/06/09 18:55:04;;;;;;;13.07;11.73;;;;;24.80;100236.00;;;;2033244;28;20218;-51
2023/06/09 18:56:04;;;;;;;12.33;11.33;;;;;25.00;100242.00;;;;2065868;28;20456;-51
2023/06/09 18:57:06;;;;;;;11.03;10.10;;;;;25.00;100241.00;;;;2059503;28;20508;-51
2023/06/09 18:58:06;;;;;;;10.00;9.20;;;;;25.00;100232.00;;;;2057945;28;20285;-50
2023/06/09 18:59:07;;;;;;;12.53;11.23;;;;;25.00;100240.00;;;;2057089;28;20823;-50
2023/06/09 19:00:11;;;;;;;13.70;12.50;;;;;25.00;100237.00;;;;2052056;28;20211;-50